Time;durP1;ratioP1;P1;durP2;ratioP2;P2;SDS_P1;SDS_P2;PMS_P1;PMS_P2;Temp;Humidity;BMP_temperature;BMP_pressure;BME280_temperature;BME280_humidity;BME280_pressure;Samples;Min_cycle;Max_cycle;Signal;HPM_P1;HPM_P2
2024/02/02 00:00:05;;;;;;;41.45;22.08;;;;;;;3.18;100.00;100819.16;6272886;28;20333;-72
2024/02/02 00:03:06;;;;;;;43.55;22.70;;;;;;;3.20;100.00;100817.38;6263910;28;20049;-72
2024/02/02 00:06:08;;;;;;;45.38;23.10;;;;;;;3.12;100.00;100821.84;6271110;28;20056;-73
2024/02/02 00:09:09;;;;;;;44.15;22.88;;;;;;;3.15;100.00;100816.59;6270120;28;20057;-71
2024/02/02 00:12:11;;;;;;;42.78;22.10;;;;;;;3.06;100.00;100827.09;6266827;28;20060;-74
2024/02/02 00:15:12;;;;;;;45.63;22.83;;;;;;;3.11;100.00;100812.38;6267535;28;20049;-72
2024/02/02 00:18:12;;;;;;;42.47;20.88;;;;;;;3.05;100.00;100830.53;6265957;28;20056;-74
2024/02/02 00:21:13;;;;;;;48.83;23.30;;;;;;;3.17;100.00;100831.19;6266162;28;20053;-72
2024/02/02 00:24:14;;;;;;;43.85;22.23;;;;;;;3.20;100.00;100836.28;6269461;28;20037;-71
2024/02/02 00:27:15;;;;;;;40.88;22.55;;;;;;;3.13;100.00;100837.28;6270084;28;20055;-72
2024/02/02 00:30:17;;;;;;;38.83;21.27;;;;;;;3.15;100.00;100847.56;6270618;28;20056;-72
2024/02/02 00:33:18;;;;;;;44.50;23.40;;;;;;;3.12;100.00;100837.31;6259273;28;21609;-72
2024/02/02 00:36:19;;;;;;;46.67;24.00;;;;;;;3.08;100.00;100840.81;6271112;28;20045;-72
2024/02/02 00:39:20;;;;;;;44.03;21.17;;;;;;;3.06;100.00;100847.72;6271907;28;20053;-72
2024/02/02 00:42:21;;;;;;;42.42;22.95;;;;;;;2.95;100.00;100858.22;6268023;28;20041;-73
2024/02/02 00:45:22;;;;;;;42.40;22.05;;;;;;;2.84;100.00;100855.81;6271786;28;20072;-73
2024/02/02 00:48:23;;;;;;;43.58;21.70;;;;;;;2.82;100.00;100863.59;6256901;28;20389;-71
2024/02/02 00:51:24;;;;;;;36.97;19.95;;;;;;;2.90;100.00;100854.88;6263946;28;20046;-71
2024/02/02 00:54:24;;;;;;;45.35;22.45;;;;;;;2.81;100.00;100859.28;6286406;28;20052;-72
2024/02/02 00:57:25;;;;;;;40.50;21.95;;;;;;;2.74;100.00;100854.25;6263323;28;20144;-71
2024/02/02 01:00:26;;;;;;;38.30;20.52;;;;;;;2.72;100.00;100851.72;6269473;28;20519;-71
2024/02/02 01:03:28;;;;;;;42.08;22.52;;;;;;;2.71;100.00;100847.44;6266964;28;20191;-72
2024/02/02 01:06:29;;;;;;;48.40;23.42;;;;;;;2.68;100.00;100851.78;6269346;28;20090;-73
2024/02/02 01:09:30;;;;;;;42.42;24.20;;;;;;;2.83;100.00;100846.38;6266988;28;20053;-72
2024/02/02 01:12:31;;;;;;;45.38;24.33;;;;;;;2.79;100.00;100844.72;6266684;28;20053;-72
2024/02/02 01:15:32;;;;;;;52.97;25.05;;;;;;;2.55;100.00;100839.09;6269246;28;20432;-72
2024/02/02 01:18:32;;;;;;;55.63;27.90;;;;;;;2.72;100.00;100836.25;6267054;28;20061;-72
2024/02/02 01:21:33;;;;;;;51.38;28.02;;;;;;;2.78;100.00;100832.72;6265679;28;20102;-72
2024/02/02 01:24:34;;;;;;;58.30;30.45;;;;;;;2.74;100.00;100831.06;6266868;28;20068;-72
2024/02/02 01:27:36;;;;;;;59.65;28.35;;;;;;;2.70;100.00;100835.44;6268914;28;20048;-72
2024/02/02 01:30:36;;;;;;;55.35;28.80;;;;;;;2.73;100.00;100831.94;6275987;28;20532;-72
2024/02/02 01:33:37;;;;;;;52.75;27.70;;;;;;;2.82;100.00;100832.66;6269227;28;20223;-72
2024/02/02 01:36:38;;;;;;;55.22;28.00;;;;;;;2.77;100.00;100831.03;6256861;28;20055;-72
2024/02/02 01:39:39;;;;;;;62.83;29.15;;;;;;;2.83;100.00;100830.91;6270255;28;20049;-72
2024/02/02 01:42:42;;;;;;;51.42;26.88;;;;;;;2.80;100.00;100829.25;6255663;28;20053;-72
2024/02/02 01:45:43;;;;;;;55.92;28.58;;;;;;;2.79;100.00;100839.56;6259243;28;20450;-72
2024/02/02 01:48:44;;;;;;;58.15;27.83;;;;;;;2.79;100.00;100837.84;6269713;28;20110;-72
2024/02/02 01:51:45;;;;;;;50.10;25.60;;;;;;;2.84;100.00;100832.59;6269238;28;20059;-72
2024/02/02 01:54:46;;;;;;;50.35;26.52;;;;;;;2.82;100.00;100831.78;6265977;28;20049;-71
2024/02/02 01:57:47;;;;;;;56.88;27.20;;;;;;;2.76;100.00;100827.59;6264490;28;20093;-72
2024/02/02 02:00:48;;;;;;;55.90;25.40;;;;;;;2.75;100.00;100825.03;6268851;28;20091;-72
2024/02/02 02:03:49;;;;;;;46.75;25.83;;;;;;;2.83;100.00;100830.91;6262929;28;20048;-72
2024/02/02 02:06:50;;;;;;;50.75;26.45;;;;;;;2.80;100.00;100833.53;6264724;28;20414;-72
2024/02/02 02:09:51;;;;;;;46.38;24.48;;;;;;;2.72;100.00;100828.53;6254962;28;20057;-72
2024/02/02 02:12:51;;;;;;;49.05;26.52;;;;;;;2.58;100.00;100828.75;6259262;28;20084;-72
2024/02/02 02:15:56;;;;;;;46.97;26.55;;;;;;;2.46;100.00;100840.97;6264529;28;20516;-72
2024/02/02 02:18:56;;;;;;;47.03;26.33;;;;;;;2.41;100.00;100857.34;6257856;28;20054;-71
2024/02/02 02:21:57;;;;;;;52.25;26.10;;;;;;;2.35;100.00;100854.84;6259738;28;20590;-72
2024/02/02 02:24:58;;;;;;;46.10;25.13;;;;;;;2.41;100.00;100859.06;6268269;28;20056;-72
2024/02/02 02:27:59;;;;;;;50.90;25.52;;;;;;;2.42;100.00;100871.06;6268130;28;20053;-71
2024/02/02 02:31:00;;;;;;;47.25;24.27;;;;;;;2.04;100.00;100869.88;6258581;28;20049;-71
2024/02/02 02:34:01;;;;;;;43.28;23.73;;;;;;;2.14;100.00;100876.59;6266810;28;20053;-71
2024/02/02 02:37:02;;;;;;;45.30;25.88;;;;;;;2.09;100.00;100882.69;6259145;28;20556;-71
2024/02/02 02:40:05;;;;;;;47.67;24.45;;;;;;;2.06;100.00;100874.97;6268872;28;20144;-72
2024/02/02 02:43:06;;;;;;;48.25;24.55;;;;;;;2.28;100.00;100872.97;6267351;28;20045;-71
2024/02/02 02:46:07;;;;;;;50.00;24.02;;;;;;;2.26;100.00;100857.53;6265944;28;20060;-72
2024/02/02 02:49:09;;;;;;;40.87;23.57;;;;;;;2.25;100.00;100855.00;6255277;28;20407;-71
2024/02/02 02:52:09;;;;;;;48.70;25.98;;;;;;;2.25;100.00;100853.28;6269063;28;20064;-75
2024/02/02 02:55:10;;;;;;;45.70;24.17;;;;;;;2.34;100.00;100855.72;6266856;28;20055;-76
2024/02/02 02:58:12;;;;;;;44.42;23.92;;;;;;;2.32;100.00;100865.19;6266037;28;20048;-76
2024/02/02 03:01:13;;;;;;;51.53;25.80;;;;;;;2.26;100.00;100860.13;6258973;28;20415;-76
2024/02/02 03:04:13;;;;;;;44.55;24.05;;;;;;;2.26;100.00;100865.25;6243269;28;20411;-76
2024/02/02 03:07:14;;;;;;;52.97;27.08;;;;;;;2.04;100.00;100863.84;6263874;28;20124;-76
2024/02/02 03:10:15;;;;;;;49.15;25.15;;;;;;;2.06;100.00;100852.69;6267141;28;20053;-76
2024/02/02 03:13:16;;;;;;;44.42;23.80;;;;;;;1.96;100.00;100864.81;6268631;28;20052;-76
2024/02/02 03:16:17;;;;;;;55.35;25.13;;;;;;;1.89;100.00;100870.03;6268543;28;20052;-75
2024/02/02 03:19:18;;;;;;;55.45;26.10;;;;;;;1.84;100.00;100879.56;6272725;28;20053;-76
2024/02/02 03:22:19;;;;;;;54.45;26.02;;;;;;;1.78;100.00;100877.91;6271977;28;20059;-75
2024/02/02 03:25:20;;;;;;;50.10;26.33;;;;;;;1.89;100.00;100890.63;6267995;28;20049;-76
2024/02/02 03:28:21;;;;;;;45.58;25.67;;;;;;;2.08;100.00;100879.25;6248787;28;20049;-76
2024/02/02 03:31:22;;;;;;;49.28;24.08;;;;;;;2.18;100.00;100875.69;6270907;28;20498;-76
2024/02/02 03:34:23;;;;;;;54.05;26.58;;;;;;;2.05;100.00;100870.72;6272859;28;20041;-76
2024/02/02 03:37:24;;;;;;;53.70;25.77;;;;;;;2.03;100.00;100868.16;6266739;28;20052;-76
2024/02/02 03:40:27;;;;;;;42.22;23.90;;;;;;;2.12;100.00;100865.47;6268983;28;20048;-76
2024/02/02 03:43:31;;;;;;;53.25;23.48;;;;;;;2.22;100.00;100858.44;6274285;28;20049;-76
2024/02/02 03:46:32;;;;;;;39.20;21.63;;;;;;;2.22;100.00;100859.34;6271484;28;20191;-75
2024/02/02 03:49:34;;;;;;;45.55;24.00;;;;;;;2.22;100.00;100856.75;6280080;28;20496;-76
2024/02/02 03:52:34;;;;;;;44.92;22.75;;;;;;;2.27;100.00;100872.13;6269085;28;20049;-76
2024/02/02 03:55:35;;;;;;;41.80;22.58;;;;;;;2.05;100.00;100871.56;6273013;28;20156;-75
2024/02/02 03:58:38;;;;;;;45.95;23.08;;;;;;;2.20;100.00;100868.81;6266169;28;20384;-76
2024/02/02 04:01:39;;;;;;;44.72;21.90;;;;;;;2.20;100.00;100873.94;6272814;28;20045;-75
2024/02/02 04:04:40;;;;;;;39.40;21.88;;;;;;;2.23;100.00;100865.31;6278779;28;20045;-76
2024/02/02 04:07:42;;;;;;;41.67;21.50;;;;;;;2.31;100.00;100876.38;6269537;28;20122;-76
2024/02/02 04:10:43;;;;;;;38.80;22.25;;;;;;;2.25;100.00;100879.03;6270091;28;20056;-75
2024/02/02 04:13:43;;;;;;;42.88;22.50;;;;;;;2.25;100.00;100879.03;6283900;28;20053;-75
2024/02/02 04:16:44;;;;;;;43.50;21.33;;;;;;;2.24;100.00;100879.03;6247792;28;20052;-76
2024/02/02 04:19:47;;;;;;;48.67;21.88;;;;;;;2.27;100.00;100884.16;6260450;28;20054;-75
2024/02/02 04:22:48;;;;;;;41.85;22.35;;;;;;;2.30;100.00;100884.94;6252645;28;20049;-75
2024/02/02 04:25:49;;;;;;;36.47;21.15;;;;;;;2.30;100.00;100887.53;6252140;28;20110;-76
2024/02/02 04:28:50;;;;;;;41.92;21.23;;;;;;;2.24;100.00;100887.59;6272225;28;20492;-76
2024/02/02 04:31:51;;;;;;;37.17;19.90;;;;;;;2.24;100.00;100886.75;6270780;28;20056;-75
2024/02/02 04:34:51;;;;;;;43.53;22.00;;;;;;;2.28;100.00;100891.84;6263283;28;20068;-75
2024/02/02 04:37:52;;;;;;;34.47;20.08;;;;;;;2.28;100.00;100888.44;6260382;28;20049;-75
2024/02/02 04:40:53;;;;;;;38.95;21.50;;;;;;;2.26;100.00;100888.44;6271512;28;20518;-75
2024/02/02 04:43:54;;;;;;;43.40;23.25;;;;;;;2.24;100.00;100889.34;6268044;28;20049;-75
2024/02/02 04:46:55;;;;;;;43.45;22.05;;;;;;;2.27;100.00;100895.31;6263689;28;20051;-76
2024/02/02 04:49:56;;;;;;;43.67;23.33;;;;;;;2.19;100.00;100891.97;6263524;28;20049;-76
2024/02/02 04:52:57;;;;;;;42.22;22.40;;;;;;;2.26;100.00;100896.16;6257610;28;20045;-76
2024/02/02 04:55:58;;;;;;;39.63;19.88;;;;;;;2.37;100.00;100893.47;6247917;28;20464;-76
2024/02/02 04:58:58;;;;;;;42.85;21.33;;;;;;;2.41;100.00;100900.28;6252074;28;20060;-76
2024/02/02 05:02:01;;;;;;;65.32;30.63;;;;;;;2.36;100.00;100900.31;6264706;28;20484;-76
2024/02/02 05:05:02;;;;;;;63.00;30.77;;;;;;;2.38;100.00;100905.47;6270512;28;20476;-76
2024/02/02 05:08:04;;;;;;;54.78;28.77;;;;;;;2.45;100.00;100911.38;6268392;28;20041;-76
2024/02/02 05:11:05;;;;;;;60.08;27.38;;;;;;;2.49;100.00;100911.34;6260694;28;20064;-76
2024/02/02 05:14:06;;;;;;;45.08;24.75;;;;;;;2.55;100.00;100918.97;6265693;28;20385;-76
2024/02/02 05:17:07;;;;;;;46.67;24.98;;;;;;;2.56;100.00;100917.25;6257134;28;20489;-76
2024/02/02 05:20:10;;;;;;;57.10;24.73;;;;;;;2.51;100.00;100912.16;6254116;28;20052;-76
2024/02/02 05:23:11;;;;;;;44.15;22.48;;;;;;;2.54;100.00;100912.09;6265662;28;20049;-75
2024/02/02 05:26:12;;;;;;;53.42;25.33;;;;;;;2.56;100.00;100915.50;6261390;28;20102;-76
2024/02/02 05:29:13;;;;;;;46.63;23.98;;;;;;;2.57;100.00;100927.53;6255007;28;20584;-75
2024/02/02 05:32:14;;;;;;;49.15;24.92;;;;;;;2.59;100.00;100930.06;6262624;28;20045;-76
2024/02/02 05:35:15;;;;;;;42.97;22.63;;;;;;;2.58;100.00;100936.09;6250916;28;20484;-75
2024/02/02 05:38:16;;;;;;;48.13;26.38;;;;;;;2.67;100.00;100948.00;6269008;28;20052;-76
2024/02/02 05:41:17;;;;;;;54.47;28.70;;;;;;;2.66;100.00;100944.59;6263882;28;20380;-76
2024/02/02 05:44:18;;;;;;;52.58;26.67;;;;;;;2.73;100.00;100946.19;6269524;28;20492;-76
2024/02/02 05:47:19;;;;;;;61.83;27.75;;;;;;;2.80;100.00;100949.53;6270104;28;20246;-76
2024/02/02 05:50:20;;;;;;;58.00;28.48;;;;;;;2.79;100.00;100963.28;6271140;28;20063;-75
2024/02/02 05:53:21;;;;;;;90.28;37.70;;;;;;;2.68;100.00;100948.00;6272156;28;20491;-76
2024/02/02 05:56:22;;;;;;;95.43;40.70;;;;;;;2.74;100.00;100949.59;6270407;28;20384;-75
2024/02/02 05:59:23;;;;;;;76.50;35.33;;;;;;;2.70;100.00;100963.41;6270195;28;20045;-76
2024/02/02 06:02:23;;;;;;;66.80;31.27;;;;;;;2.73;100.00;100971.97;6268895;28;20088;-75
2024/02/02 06:05:24;;;;;;;64.05;30.45;;;;;;;2.72;100.00;100970.28;6268299;28;20398;-76
2024/02/02 06:08:25;;;;;;;61.47;29.13;;;;;;;2.65;100.00;100972.94;6268324;28;20049;-76
2024/02/02 06:11:26;;;;;;;60.17;29.58;;;;;;;2.73;100.00;100974.53;6268689;28;20187;-76
2024/02/02 06:14:29;;;;;;;56.45;26.25;;;;;;;2.75;100.00;100970.22;6270013;28;20041;-75
2024/02/02 06:17:30;;;;;;;50.60;24.20;;;;;;;2.78;100.00;100974.47;6267276;28;20056;-75
2024/02/02 06:20:31;;;;;;;56.38;29.35;;;;;;;2.82;100.00;100979.56;6268564;28;20048;-75
2024/02/02 06:23:32;;;;;;;63.13;29.98;;;;;;;2.88;100.00;100985.50;6264636;28;20060;-76
2024/02/02 06:26:33;;;;;;;51.03;28.08;;;;;;;2.89;100.00;100994.97;6261095;28;20048;-75
2024/02/02 06:29:34;;;;;;;54.45;26.70;;;;;;;2.91;100.00;101001.78;6267046;28;20053;-75
2024/02/02 06:32:35;;;;;;;53.25;26.50;;;;;;;2.96;100.00;100999.13;6267906;28;20476;-75
2024/02/02 06:35:38;;;;;;;46.17;23.85;;;;;;;2.94;100.00;101004.31;6267110;28;20049;-77
2024/02/02 06:38:39;;;;;;;52.25;25.20;;;;;;;2.92;100.00;101008.63;6266990;28;20080;-76
2024/02/02 06:41:40;;;;;;;49.08;25.80;;;;;;;2.88;100.00;101008.69;6268196;28;20090;-77
2024/02/02 06:44:41;;;;;;;48.80;27.27;;;;;;;2.88;100.00;101008.69;6268734;28;20041;-76
2024/02/02 06:47:42;;;;;;;54.10;27.67;;;;;;;2.82;100.00;101015.66;6269288;28;20052;-76
2024/02/02 06:50:44;;;;;;;53.90;28.70;;;;;;;2.82;100.00;101020.81;6273288;28;20416;-76
2024/02/02 06:53:45;;;;;;;48.83;25.30;;;;;;;2.80;100.00;101020.00;6274139;28;20049;-76
2024/02/02 06:56:46;;;;;;;51.05;26.23;;;;;;;2.81;100.00;101011.38;6274093;28;20135;-75
2024/02/02 06:59:50;;;;;;;60.53;25.45;;;;;;;2.84;100.00;101020.78;6273872;28;20463;-75
2024/02/02 07:02:51;;;;;;;48.00;25.42;;;;;;;2.83;100.00;101024.25;6272877;28;20049;-75
2024/02/02 07:05:52;;;;;;;47.47;24.13;;;;;;;2.83;100.00;101037.13;6273589;28;20605;-75
2024/02/02 07:09:06;;;;;;;42.63;25.25;;;;;;;2.91;100.00;101037.03;6273580;28;20750;-75
2024/02/02 07:12:13;;;;;;;47.72;27.02;;;;;;;2.91;100.00;101037.03;6273717;28;20381;-75
2024/02/02 07:15:21;;;;;;;60.13;29.50;;;;;;;2.92;100.00;101037.00;6273261;28;20051;-75
2024/02/02 07:18:37;;;;;;;58.13;30.92;;;;;;;2.95;100.00;101030.97;6273664;28;20048;-75
2024/02/02 07:21:38;;;;;;;52.38;28.48;;;;;;;3.06;100.00;101041.13;6272514;28;20057;-75
2024/02/02 07:24:42;;;;;;;46.90;25.58;;;;;;;3.08;100.00;101027.31;6272100;28;20041;-76
2024/02/02 07:27:55;;;;;;;46.38;25.90;;;;;;;3.05;100.00;101026.50;6273573;28;20084;-75
2024/02/02 07:30:57;;;;;;;51.25;25.63;;;;;;;3.01;100.00;101023.16;6272233;28;20057;-76
2024/02/02 07:34:29;;;;;;;45.97;25.35;;;;;;;3.05;100.00;101029.97;6273554;28;20079;-75
2024/02/02 07:37:49;;;;;;;46.75;24.70;;;;;;;3.11;100.00;101026.41;6273131;28;20052;-76
2024/02/02 07:41:06;;;;;;;46.78;24.23;;;;;;;3.17;100.00;101028.91;6271982;28;20049;-76
2024/02/02 07:44:07;;;;;;;52.22;25.35;;;;;;;3.28;100.00;101021.03;6273155;28;20045;-76
2024/02/02 07:47:10;;;;;;;50.00;26.00;;;;;;;3.34;100.00;101028.69;6271858;28;20459;-75
2024/02/02 07:50:11;;;;;;;48.28;24.60;;;;;;;3.37;100.00;101034.63;6272926;28;20048;-75
2024/02/02 07:53:11;;;;;;;52.95;26.20;;;;;;;3.50;100.00;101031.84;6271839;28;20049;-76
2024/02/02 07:56:13;;;;;;;52.83;24.38;;;;;;;3.54;100.00;101028.34;6271609;28;20331;-75
2024/02/02 07:59:13;;;;;;;53.60;27.40;;;;;;;3.55;100.00;101041.22;6272542;28;20060;-75
2024/02/02 08:02:14;;;;;;;50.30;26.35;;;;;;;3.59;100.00;101044.59;6272557;28;20060;-76
2024/02/02 08:05:15;;;;;;;51.75;27.25;;;;;;;3.62;100.00;101034.22;6272640;28;20045;-76
2024/02/02 08:08:16;;;;;;;56.05;25.70;;;;;;;3.68;100.00;101041.88;6272336;28;20458;-76
2024/02/02 08:11:24;;;;;;;46.85;25.40;;;;;;;3.60;100.00;101047.19;6272603;28;20045;-76
2024/02/02 08:14:25;;;;;;;46.97;23.75;;;;;;;3.72;100.00;101042.66;6272293;28;20542;-75
2024/02/02 08:17:26;;;;;;;48.72;24.95;;;;;;;3.72;100.00;101040.94;6270838;28;20092;-75
2024/02/02 08:20:27;;;;;;;48.08;22.30;;;;;;;3.74;100.00;101041.75;6271084;28;20045;-76
2024/02/02 08:23:28;;;;;;;49.65;25.83;;;;;;;3.74;100.00;101041.75;6270802;28;20085;-76
2024/02/02 08:26:31;;;;;;;56.78;26.55;;;;;;;3.76;100.00;101047.75;6272237;28;20045;-76
2024/02/02 08:29:32;;;;;;;46.92;24.23;;;;;;;3.84;100.00;101050.22;6271756;28;20091;-76
2024/02/02 08:32:37;;;;;;;46.97;22.63;;;;;;;3.92;100.00;101044.91;6270856;28;20357;-76
2024/02/02 08:35:39;;;;;;;52.33;26.10;;;;;;;3.95;100.00;101047.44;6271005;28;20659;-76
2024/02/02 08:38:40;;;;;;;60.47;29.92;;;;;;;3.98;100.00;101044.81;6270613;28;20064;-76
2024/02/02 08:41:41;;;;;;;57.17;28.07;;;;;;;4.01;100.00;101037.84;6270904;28;20143;-76
2024/02/02 08:44:42;;;;;;;40.40;22.02;;;;;;;4.01;100.00;101042.16;6271704;28;20049;-76
2024/02/02 08:47:46;;;;;;;51.55;25.23;;;;;;;4.03;100.00;101040.41;6270294;28;20149;-76
2024/02/02 08:50:47;;;;;;;47.28;24.92;;;;;;;4.03;100.00;101041.25;6270380;28;20045;-76
2024/02/02 08:54:09;;;;;;;46.00;23.23;;;;;;;4.03;100.00;101046.41;6270473;28;20052;-77
2024/02/02 08:57:16;;;;;;;46.60;23.17;;;;;;;4.08;100.00;101055.81;6270828;28;20111;-76
2024/02/02 09:00:38;;;;;;;43.33;22.73;;;;;;;4.11;100.00;101055.75;6271273;28;20507;-76
2024/02/02 09:03:43;;;;;;;44.83;24.50;;;;;;;4.02;100.00;101043.88;6270016;28;20454;-76
2024/02/02 09:06:44;;;;;;;54.88;25.15;;;;;;;4.13;100.00;101049.69;6271072;28;20057;-76
2024/02/02 09:09:45;;;;;;;44.42;23.55;;;;;;;4.18;100.00;101060.78;6270996;28;20143;-75
2024/02/02 09:12:50;;;;;;;55.47;26.23;;;;;;;4.29;100.00;101060.59;6269355;28;20190;-76
2024/02/02 09:15:53;;;;;;;46.47;23.50;;;;;;;4.28;100.00;101060.63;6271288;28;20101;-76
2024/02/02 09:18:55;;;;;;;51.13;25.57;;;;;;;4.39;100.00;101054.38;6269623;28;20154;-75
2024/02/02 09:22:04;;;;;;;45.40;24.20;;;;;;;4.55;100.00;101057.50;6269499;28;20285;-76
2024/02/02 09:25:09;;;;;;;44.67;23.10;;;;;;;4.61;100.00;101053.91;6270879;28;20049;-76
2024/02/02 09:28:37;;;;;;;46.03;23.73;;;;;;;4.73;100.00;101061.44;6252735;28;20052;-76
2024/02/02 09:31:38;;;;;;;39.35;21.52;;;;;;;4.71;100.00;101052.84;6269522;28;20045;-74
2024/02/02 09:34:45;;;;;;;41.92;22.80;;;;;;;4.83;100.00;101059.50;6270871;28;20134;-73
2024/02/02 09:37:50;;;;;;;41.70;22.98;;;;;;;4.87;100.00;101052.53;6270613;28;20053;-73
2024/02/02 09:41:06;;;;;;;37.85;21.67;;;;;;;4.93;100.00;101048.09;6271068;28;20120;-76
2024/02/02 09:44:25;;;;;;;43.33;22.73;;;;;;;4.99;100.00;101052.28;6270869;28;20053;-76
2024/02/02 09:47:45;;;;;;;40.92;21.80;;;;;;;5.03;100.00;101048.75;6270500;28;20053;-76
2024/02/02 09:50:51;;;;;;;40.10;21.35;;;;;;;5.01;100.00;101042.75;6270361;28;20045;-76
2024/02/02 09:54:11;;;;;;;41.97;22.80;;;;;;;5.16;100.00;101039.81;6270425;28;20131;-76
2024/02/02 09:57:20;;;;;;;39.90;21.48;;;;;;;5.20;100.00;101043.19;6268919;28;20050;-75
2024/02/02 10:00:35;;;;;;;38.45;21.27;;;;;;;5.25;100.00;101044.78;6269146;28;20102;-76
2024/02/02 10:04:03;;;;;;;38.13;21.38;;;;;;;5.50;100.00;101041.63;6268796;28;20045;-76
2024/02/02 10:07:37;;;;;;;37.90;20.30;;;;;;;5.59;100.00;101043.97;6268833;28;20053;-75
2024/02/02 10:10:53;;;;;;;39.38;22.63;;;;;;;5.62;100.00;101056.84;6268764;28;20414;-75
2024/02/02 10:14:15;;;;;;;49.35;22.30;;;;;;;5.84;100.00;101044.19;6270070;28;20135;-75
2024/02/02 10:17:43;;;;;;;41.53;21.80;;;;;;;6.35;100.00;101034.28;6269952;28;20052;-75
2024/02/02 10:21:00;;;;;;;34.85;19.63;;;;;;;6.41;100.00;101044.47;6269871;28;20484;-75
2024/02/02 10:24:19;;;;;;;37.20;19.55;;;;;;;6.54;100.00;101043.22;6273440;28;20059;-76
2024/02/02 10:27:43;;;;;;;35.78;19.05;;;;;;;6.90;100.00;101034.41;6274846;28;20175;-76
2024/02/02 10:31:20;;;;;;;43.47;20.67;;;;;;;6.93;100.00;101037.75;6275095;28;20053;-75
2024/02/02 10:34:49;;;;;;;41.65;20.90;;;;;;;6.96;100.00;101031.63;6274800;28;20057;-75
2024/02/02 10:37:50;;;;;;;38.58;19.65;;;;;;;6.71;100.00;101018.53;6274871;28;20114;-75
2024/02/02 10:41:00;;;;;;;38.70;20.17;;;;;;;6.71;100.00;101024.56;6273501;28;20053;-75
2024/02/02 10:44:13;;;;;;;44.33;19.48;;;;;;;6.78;100.00;101014.88;6274544;28;20107;-75
2024/02/02 10:47:25;;;;;;;;;;;;;;;6.78;100.00;101028.69;6273667;28;20480;-75
2024/02/02 10:50:43;;;;;;;33.03;16.88;;;;;;;6.60;100.00;101019.69;6274386;28;19954;-71
2024/02/02 10:54:14;;;;;;;35.13;18.23;;;;;;;6.62;100.00;101019.66;6273130;28;20411;-75
2024/02/02 10:58:00;;;;;;;35.17;19.30;;;;;;;6.57;100.00;101016.34;6274209;28;20084;-71
2024/02/02 11:01:15;;;;;;;43.85;21.25;;;;;;;6.55;100.00;101019.00;6265432;28;20056;-71
2024/02/02 11:04:19;;;;;;;39.17;20.95;;;;;;;6.54;100.00;101022.47;6274222;28;20242;-75
2024/02/02 11:07:34;;;;;;;39.63;19.77;;;;;;;6.41;100.00;101019.38;6272827;28;20049;-75
2024/02/02 11:11:07;;;;;;;37.22;18.48;;;;;;;6.34;100.00;101025.66;6272588;28;20057;-71
2024/02/02 11:14:31;;;;;;;37.90;18.90;;;;;;;6.40;100.00;101024.59;6273912;28;20060;-71
2024/02/02 11:17:38;;;;;;;38.45;18.15;;;;;;;6.34;100.00;101015.28;6273937;28;20049;-70
2024/02/02 11:21:06;;;;;;;32.83;18.25;;;;;;;6.41;100.00;101018.53;6272470;28;20153;-70
2024/02/02 11:24:21;;;;;;;41.05;18.60;;;;;;;6.62;100.00;101011.88;6273742;28;20060;-71
2024/02/02 11:27:59;;;;;;;49.85;24.05;;;;;;;6.55;100.00;101011.22;6274022;28;20076;-71
2024/02/02 11:31:09;;;;;;;39.20;19.65;;;;;;;6.52;100.00;101010.47;6272294;28;20053;-71
2024/02/02 11:34:47;;;;;;;39.45;19.98;;;;;;;6.69;100.00;101009.97;6273110;28;20106;-71
2024/02/02 11:38:09;;;;;;;51.53;24.83;;;;;;;6.88;100.00;101008.53;6272107;28;20567;-75
2024/02/02 11:41:22;;;;;;;40.53;20.13;;;;;;;6.88;100.00;100995.56;6272126;28;20049;-72
2024/02/02 11:44:27;;;;;;;29.50;17.15;;;;;;;6.95;100.00;100994.44;6273238;28;20056;-71
2024/02/02 11:47:32;;;;;;;30.92;15.57;;;;;;;7.23;100.00;100991.84;6273074;28;20055;-71
2024/02/02 11:50:42;;;;;;;27.38;14.82;;;;;;;7.16;100.00;100992.91;6272157;28;20183;-71
2024/02/02 11:53:55;;;;;;;28.10;15.15;;;;;;;7.35;100.00;100988.00;6272932;28;20052;-75
2024/02/02 11:57:01;;;;;;;37.45;18.48;;;;;;;7.34;100.00;100980.28;6271857;28;20045;-71
2024/02/02 12:00:05;;;;;;;33.08;16.10;;;;;;;7.44;100.00;100979.91;6272664;28;20056;-75
2024/02/02 12:03:25;;;;;;;28.45;15.10;;;;;;;7.62;98.47;100981.03;6271762;28;20052;-75
2024/02/02 12:06:35;;;;;;;21.13;13.75;;;;;;;7.55;97.19;100979.53;6271348;28;20458;-75
2024/02/02 12:09:43;;;;;;;24.73;12.68;;;;;;;7.96;97.69;100979.03;6272428;28;20056;-75
2024/02/02 12:13:06;;;;;;;17.73;11.32;;;;;;;7.78;97.55;100983.97;6272582;28;20094;-75
2024/02/02 12:16:09;;;;;;;30.80;14.07;;;;;;;8.41;97.42;100978.28;6272433;28;20041;-75
2024/02/02 12:19:10;;;;;;;27.00;14.20;;;;;;;8.43;93.30;100976.47;6271096;28;20076;-71
2024/02/02 12:22:11;;;;;;;25.23;14.10;;;;;;;8.75;91.64;100974.41;6272472;28;20080;-71
2024/02/02 12:25:14;;;;;;;22.73;12.68;;;;;;;8.77;90.44;100959.56;6270869;28;20508;-71
2024/02/02 12:28:15;;;;;;;24.48;12.05;;;;;;;8.63;91.97;100966.16;6272327;28;20049;-75
2024/02/02 12:31:20;;;;;;;24.17;12.38;;;;;;;9.07;91.63;100960.97;6270839;28;20057;-75
2024/02/02 12:34:24;;;;;;;23.10;11.38;;;;;;;9.29;88.59;100949.69;6272039;28;20114;-75
2024/02/02 12:37:25;;;;;;;27.98;12.95;;;;;;;8.97;88.56;100953.59;6271974;28;20091;-75
2024/02/02 12:40:26;;;;;;;17.23;9.98;;;;;;;9.15;84.44;100939.00;6272077;28;20111;-75
2024/02/02 12:43:27;;;;;;;20.48;10.32;;;;;;;8.58;85.56;100942.06;6271704;28;20060;-75
2024/02/02 12:46:28;;;;;;;17.67;10.82;;;;;;;8.42;88.99;100948.75;6270927;28;20101;-75
2024/02/02 12:49:29;;;;;;;22.70;11.35;;;;;;;8.47;90.43;100942.50;6270518;28;20083;-75
2024/02/02 12:52:30;;;;;;;20.08;10.95;;;;;;;8.81;89.25;100937.72;6271432;28;20079;-75
2024/02/02 12:55:33;;;;;;;21.63;11.20;;;;;;;8.97;87.46;100940.56;6270500;28;20049;-75
2024/02/02 12:58:34;;;;;;;24.85;11.98;;;;;;;8.83;87.30;100936.78;6271315;28;20060;-70
2024/02/02 13:01:35;;;;;;;22.10;10.40;;;;;;;8.76;90.51;100935.31;6270333;28;20084;-70
2024/02/02 13:04:36;;;;;;;27.30;11.05;;;;;;;8.58;89.44;100934.28;6271319;28;20377;-71
2024/02/02 13:07:39;;;;;;;19.90;11.25;;;;;;;8.92;89.13;100937.31;6270012;28;20461;-70
2024/02/02 13:10:47;;;;;;;20.23;10.98;;;;;;;9.14;87.49;100932.06;6270884;28;20053;-70
2024/02/02 13:13:48;;;;;;;22.85;12.00;;;;;;;9.22;84.24;100930.84;6271321;28;20056;-71
2024/02/02 13:17:03;;;;;;;21.85;11.18;;;;;;;9.35;84.38;100930.31;6269686;28;20140;-72
2024/02/02 13:20:14;;;;;;;19.80;11.15;;;;;;;9.20;83.70;100935.25;6269630;28;20049;-71
2024/02/02 13:23:29;;;;;;;28.70;12.85;;;;;;;8.96;83.00;100936.28;6269668;28;20056;-71
2024/02/02 13:26:38;;;;;;;25.17;13.48;;;;;;;8.91;82.73;100931.25;6269301;28;20415;-70
2024/02/02 13:29:39;;;;;;;27.35;12.27;;;;;;;9.05;81.96;100928.09;6270400;28;20060;-70
2024/02/02 13:32:42;;;;;;;23.15;10.05;;;;;;;8.98;82.57;100927.50;6270261;28;20053;-71
2024/02/02 13:35:53;;;;;;;20.52;10.25;;;;;;;9.03;81.27;100929.91;6268700;28;20071;-70
2024/02/02 13:39:00;;;;;;;24.63;10.85;;;;;;;8.95;80.79;100938.03;6270146;28;20080;-70
2024/02/02 13:42:01;;;;;;;21.98;10.10;;;;;;;8.71;78.41;100932.06;6268711;28;20096;-70
2024/02/02 13:45:16;;;;;;;14.90;8.37;;;;;;;8.80;79.93;100928.25;6270493;28;20049;-70
2024/02/02 13:48:16;;;;;;;17.73;8.25;;;;;;;8.71;80.70;100926.84;6270314;28;20052;-70
2024/02/02 13:51:22;;;;;;;13.82;8.68;;;;;;;8.60;81.60;100924.66;6270456;28;20273;-71
2024/02/02 13:54:23;;;;;;;21.33;10.05;;;;;;;8.53;81.43;100922.38;6270192;28;20056;-70
2024/02/02 13:57:24;;;;;;;17.55;9.15;;;;;;;8.26;82.43;100919.88;6268863;28;20094;-70
2024/02/02 14:00:31;;;;;;;18.77;9.68;;;;;;;8.21;81.69;100927.00;6270124;28;20132;-70
2024/02/02 14:03:32;;;;;;;16.80;9.73;;;;;;;8.17;83.27;100934.03;6270249;28;20075;-70